createdAt,value
2018-05-21T00:00:01.314Z,95466.13
2018-05-21T00:02:30.535Z,95464.16
2018-05-21T00:04:59.739Z,95460.73
2018-05-21T00:07:28.206Z,95459.62
2018-05-21T00:09:57.410Z,95455.94
2018-05-21T00:12:26.667Z,95455.45
2018-05-21T00:14:55.124Z,95459.19
2018-05-21T00:17:23.520Z,95461.30
2018-05-21T00:19:51.962Z,95449.35
2018-05-21T00:22:21.180Z,95456.64
2018-05-21T00:24:50.376Z,95452.38
2018-05-21T00:27:19.586Z,95451.30
2018-05-21T00:29:48.790Z,95455.41
2018-05-21T00:32:17.972Z,95453.78
2018-05-21T00:34:47.189Z,95453.86
2018-05-21T00:37:16.373Z,95447.09
2018-05-21T00:39:44.807Z,95451.02
2018-05-21T00:42:13.299Z,95450.39
2018-05-21T00:44:41.741Z,95446.86
2018-05-21T00:47:10.912Z,95443.67
2018-05-21T00:49:39.342Z,95443.34
2018-05-21T00:52:07.743Z,95437.86
2018-05-21T00:54:36.188Z,95435.45
2018-05-21T00:57:05.369Z,95434.00
2018-05-21T00:59:33.810Z,95433.14
2018-05-21T01:02:02.224Z,95433.92
2018-05-21T01:04:30.631Z,95432.31
2018-05-21T01:06:59.069Z,95430.38
2018-05-21T01:09:28.241Z,95428.75
2018-05-21T01:11:57.434Z,95424.27
2018-05-21T01:14:26.607Z,95425.66
2018-05-21T01:16:55.099Z,95429.32
2018-05-21T01:19:23.491Z,95424.73
2018-05-21T01:21:51.927Z,95430.98
2018-05-21T01:24:20.320Z,95436.91
2018-05-21T01:26:48.756Z,95435.64
2018-05-21T01:29:17.923Z,95431.45
2018-05-21T01:31:46.372Z,95427.48
2018-05-21T01:34:14.781Z,95428.08
2018-05-21T01:36:43.218Z,95425.59
2018-05-21T01:39:11.629Z,95428.25
2018-05-21T01:41:40.059Z,95420.49
2018-05-21T01:44:08.459Z,95426.68
2018-05-21T01:46:37.663Z,95422.60
2018-05-21T01:49:06.054Z,95423.23
2018-05-21T01:51:34.488Z,95415.83
2018-05-21T01:54:02.894Z,95417.59
2018-05-21T01:56:31.330Z,95416.12
2018-05-21T01:58:59.726Z,95412.11
2018-05-21T02:01:28.155Z,95416.94
2018-05-21T02:03:56.558Z,95412.35
2018-05-21T02:06:25.021Z,95411.77
2018-05-21T02:08:54.216Z,95411.70
2018-05-21T02:11:22.676Z,95414.19
2018-05-21T02:13:51.104Z,95402.31
2018-05-21T02:16:20.328Z,95412.61
2018-05-21T02:18:48.746Z,95406.16
2018-05-21T02:21:17.198Z,95409.85
2018-05-21T02:23:45.621Z,95413.43
2018-05-21T02:26:14.066Z,95415.67
2018-05-21T02:28:42.486Z,95417.88
2018-05-21T02:31:10.942Z,95417.20
2018-05-21T02:33:39.356Z,95413.56
2018-05-21T02:36:07.795Z,95408.70
2018-05-21T02:38:36.232Z,95413.23
2018-05-21T02:41:04.695Z,95404.13
2018-05-21T02:43:33.112Z,95411.11
2018-05-21T02:46:01.565Z,95406.72
2018-05-21T02:48:30.739Z,95403.04
2018-05-21T02:50:59.165Z,95394.25
2018-05-21T02:53:27.568Z,95396.26
2018-05-21T02:55:55.975Z,95402.89
2018-05-21T02:58:25.179Z,95399.64
2018-05-21T03:00:54.342Z,95391.30
2018-05-21T03:03:22.784Z,95397.11
2018-05-21T03:05:51.175Z,95393.80
2018-05-21T03:08:19.598Z,95393.19
2018-05-21T03:10:47.997Z,95387.94
2018-05-21T03:13:16.440Z,95385.58
2018-05-21T03:15:44.839Z,95386.30
2018-05-21T03:18:13.262Z,95380.46
2018-05-21T03:20:42.438Z,95377.14
2018-05-21T03:23:10.868Z,95383.19
2018-05-21T03:25:39.260Z,95378.95
2018-05-21T03:28:07.690Z,95385.81
2018-05-21T03:30:36.108Z,95386.95
2018-05-21T03:33:05.303Z,95383.98
2018-05-21T03:35:34.476Z,95379.50
2018-05-21T03:38:02.903Z,95381.23
2018-05-21T03:40:31.312Z,95380.98
2018-05-21T03:42:59.747Z,95387.83
2018-05-21T03:45:28.142Z,95379.66
2018-05-21T03:47:57.340Z,95383.86
2018-05-21T03:50:25.755Z,95378.60
2018-05-21T03:52:54.199Z,95388.44
2018-05-21T03:55:22.600Z,95382.86
2018-05-21T03:57:51.798Z,95384.37
2018-05-21T04:00:38.708Z,95381.08
2018-05-21T04:06:19.362Z,95382.53
2018-05-21T04:08:48.550Z,95383.38
2018-05-21T04:11:16.940Z,95385.33
2018-05-21T04:13:45.382Z,95379.28
2018-05-21T04:16:13.796Z,95380.18
2018-05-21T04:18:43.008Z,95374.80
2018-05-21T04:21:11.420Z,95376.31
2018-05-21T04:23:39.859Z,95388.13
2018-05-21T04:26:08.269Z,95381.25
2018-05-21T04:28:37.461Z,95377.53
2018-05-21T04:31:05.867Z,95376.83
2018-05-21T04:33:35.054Z,95388.95
2018-05-21T04:36:04.234Z,95388.38
2018-05-21T04:38:32.674Z,95385.14
2018-05-21T04:41:01.077Z,95391.18
2018-05-21T04:43:29.499Z,95386.13
2018-05-21T04:45:57.905Z,95386.40
2018-05-21T04:48:26.335Z,95385.72
2018-05-21T04:50:54.743Z,95396.14
2018-05-21T04:53:23.176Z,95393.85
2018-05-21T04:55:51.592Z,95392.86
2018-05-21T04:58:20.014Z,95399.57
2018-05-21T05:00:49.189Z,95399.05
2018-05-21T05:03:17.622Z,95394.12
2018-05-21T05:05:46.023Z,95397.48
2018-05-21T05:08:14.449Z,95394.43
2018-05-21T05:10:42.875Z,95400.98
2018-05-21T05:13:11.302Z,95399.54
2018-05-21T05:15:39.703Z,95395.16
2018-05-21T05:18:08.142Z,95393.87
2018-05-21T05:20:36.536Z,95397.05
2018-05-21T05:23:04.954Z,95387.67
2018-05-21T05:25:33.356Z,95395.48
2018-05-21T05:28:02.554Z,95392.56
2018-05-21T05:30:31.717Z,95388.47
2018-05-21T05:33:00.156Z,95385.39
2018-05-21T05:35:28.555Z,95381.77
2018-05-21T05:37:56.946Z,95386.17
2018-05-21T05:40:25.387Z,95385.13
2018-05-21T05:42:53.784Z,95384.73
2018-05-21T05:45:22.964Z,95388.63
2018-05-21T05:47:51.362Z,95385.27
2018-05-21T05:50:20.554Z,95388.53
2018-05-21T05:52:48.971Z,95387.27
2018-05-21T05:55:17.410Z,95391.16
2018-05-21T05:57:45.806Z,95380.66
2018-05-21T06:00:15.024Z,95382.52
2018-05-21T06:02:44.197Z,95380.62
2018-05-21T06:05:12.631Z,95387.61
2018-05-21T06:07:41.059Z,95392.72
2018-05-21T06:10:09.528Z,95390.61
2018-05-21T06:12:37.930Z,95386.20
2018-05-21T06:15:06.357Z,95380.97
2018-05-21T06:17:34.756Z,95382.45
2018-05-21T06:20:03.213Z,95379.00
2018-05-21T06:22:32.410Z,95378.06
2018-05-21T06:25:01.603Z,95387.89
2018-05-21T06:27:30.058Z,95386.41
2018-05-21T06:29:58.486Z,95382.22
2018-05-21T06:32:27.723Z,95389.89
2018-05-21T06:34:56.191Z,95393.01
2018-05-21T06:37:24.603Z,95391.16
2018-05-21T06:39:53.035Z,95392.37
2018-05-21T06:42:22.212Z,95396.11
2018-05-21T06:44:50.666Z,95390.60
2018-05-21T06:47:19.114Z,95382.79
2018-05-21T06:49:48.336Z,95382.63
2018-05-21T06:52:16.734Z,95380.88
2018-05-21T06:54:45.166Z,95384.79
2018-05-21T06:57:13.575Z,95391.98
2018-05-21T06:59:42.037Z,95394.50
2018-05-21T07:02:10.418Z,95392.74
2018-05-21T07:04:38.875Z,95391.22
2018-05-21T07:07:07.275Z,95385.86
2018-05-21T07:09:35.716Z,95391.89
2018-05-21T07:12:04.118Z,95383.89
2018-05-21T07:14:32.546Z,95388.98
2018-05-21T07:17:00.954Z,95391.99
2018-05-21T07:19:29.380Z,95388.67
2018-05-21T07:21:57.773Z,95389.07
2018-05-21T07:24:26.216Z,95379.98
2018-05-21T07:26:54.619Z,95383.56
2018-05-21T07:29:23.064Z,95378.81
2018-05-21T07:31:52.226Z,95380.82
2018-05-21T07:34:20.654Z,95385.88
2018-05-21T07:36:49.063Z,95377.92
2018-05-21T07:39:17.457Z,95372.84
2018-05-21T07:41:45.910Z,95371.47
2018-05-21T07:44:14.311Z,95373.52
2018-05-21T07:46:42.747Z,95372.27
2018-05-21T07:49:11.152Z,95363.66
2018-05-21T07:51:39.635Z,95362.80
2018-05-21T07:54:07.994Z,95356.92
2018-05-21T07:56:36.441Z,95359.76
2018-05-21T07:59:04.845Z,95357.83
2018-05-21T08:01:33.284Z,95356.51
2018-05-21T08:04:01.690Z,95354.77
2018-05-21T08:06:30.111Z,95357.11
2018-05-21T08:08:58.520Z,95358.44
2018-05-21T08:11:27.727Z,95361.02
2018-05-21T08:13:56.889Z,95352.36
2018-05-21T08:16:25.332Z,95358.00
2018-05-21T08:18:53.747Z,95355.14
2018-05-21T08:21:22.179Z,95353.48
2018-05-21T08:23:51.342Z,95353.53
2018-05-21T08:26:19.774Z,95360.29
2018-05-21T08:28:48.188Z,95353.05
2018-05-21T08:31:16.626Z,95344.88
2018-05-21T08:33:45.795Z,95350.80
2018-05-21T08:36:14.219Z,95351.38
2018-05-21T08:38:43.390Z,95348.75
2018-05-21T08:41:11.833Z,95356.53
2018-05-21T08:43:40.246Z,95354.09
2018-05-21T08:46:08.678Z,95353.39
2018-05-21T08:48:37.124Z,95350.63
2018-05-21T08:51:05.618Z,95347.30
2018-05-21T08:53:34.078Z,95344.13
2018-05-21T08:56:02.554Z,95343.06
2018-05-21T08:58:30.973Z,95338.28
2018-05-21T09:00:59.434Z,95338.59
2018-05-21T09:03:27.859Z,95343.28
2018-05-21T09:05:56.332Z,95340.02
2018-05-21T09:08:24.816Z,95340.11
2018-05-21T09:10:54.045Z,95340.91
2018-05-21T09:13:22.467Z,95335.73
2018-05-21T09:15:50.931Z,95342.92
2018-05-21T09:18:19.359Z,95339.62
2018-05-21T09:20:47.833Z,95337.85
2018-05-21T09:23:16.335Z,95332.88
2018-05-21T09:25:44.793Z,95334.23
2018-05-21T09:28:13.249Z,95331.34
2018-05-21T09:30:41.725Z,95329.41
2018-05-21T09:33:10.140Z,95333.28
2018-05-21T09:35:38.607Z,95335.00
2018-05-21T09:38:07.043Z,95331.36
2018-05-21T09:40:35.466Z,95327.38
2018-05-21T09:43:03.924Z,95327.28
2018-05-21T09:45:33.108Z,95324.34
2018-05-21T09:48:01.561Z,95323.47
2018-05-21T09:50:29.994Z,95322.98
2018-05-21T09:52:59.234Z,95320.06
2018-05-21T09:55:27.676Z,95316.67
2018-05-21T09:57:56.122Z,95314.39
2018-05-21T10:00:24.543Z,95324.36
2018-05-21T10:02:53.763Z,95313.11
2018-05-21T10:05:22.978Z,95309.75
2018-05-21T10:07:51.470Z,95307.77
2018-05-21T10:10:19.905Z,95315.47
2018-05-21T10:12:48.337Z,95319.70
2018-05-21T10:15:16.835Z,95315.64
2018-05-21T10:17:45.447Z,95308.14
2018-05-21T10:20:13.859Z,95303.76
2018-05-21T10:22:42.310Z,95311.88
2018-05-21T10:25:10.709Z,95309.65
2018-05-21T10:27:39.135Z,95302.01
2018-05-21T10:30:08.372Z,95303.71
2018-05-21T10:32:36.830Z,95303.39
2018-05-21T10:35:05.241Z,95310.23
2018-05-21T10:37:33.670Z,95309.04
2018-05-21T10:40:02.154Z,95307.11
2018-05-21T10:42:30.601Z,95306.25
2018-05-21T10:44:59.036Z,95299.98
2018-05-21T10:47:28.269Z,95300.09
2018-05-21T10:49:56.690Z,95300.74
2018-05-21T10:52:25.182Z,95299.48
2018-05-21T10:54:53.585Z,95297.78
2018-05-21T10:57:22.872Z,95290.02
2018-05-21T10:59:51.286Z,95292.67
2018-05-21T11:02:19.804Z,95288.12
2018-05-21T11:04:48.245Z,95288.89
2018-05-21T11:07:17.512Z,95290.92
2018-05-21T11:09:45.930Z,95275.87
2018-05-21T11:12:15.230Z,95279.75
2018-05-21T11:14:43.610Z,95275.13
2018-05-21T11:17:12.135Z,95281.60
2018-05-21T11:19:41.323Z,95276.59
2018-05-21T11:22:10.556Z,95281.58
2018-05-21T11:24:39.048Z,95270.31
2018-05-21T11:27:07.404Z,95267.58
2018-05-21T11:29:35.803Z,95270.87
2018-05-21T11:32:04.315Z,95271.59
2018-05-21T11:34:33.490Z,95273.52
2018-05-21T11:37:01.939Z,95268.40
2018-05-21T11:39:31.135Z,95257.19
2018-05-21T11:42:00.360Z,95259.11
2018-05-21T11:44:28.793Z,95258.85
2018-05-21T11:46:57.272Z,95261.50
2018-05-21T11:49:25.713Z,95254.80
2018-05-21T11:51:54.131Z,95252.78
2018-05-21T11:54:22.580Z,95254.62
2018-05-21T11:56:51.018Z,95250.46
2018-05-21T11:59:19.483Z,95253.57
2018-05-21T12:01:47.898Z,95253.81
2018-05-21T12:04:16.368Z,95252.39
2018-05-21T12:06:44.775Z,95250.45
2018-05-21T12:09:13.220Z,95242.04
2018-05-21T12:11:41.648Z,95256.38
2018-05-21T12:14:10.865Z,95249.02
2018-05-21T12:16:40.058Z,95247.91
2018-05-21T12:19:09.291Z,95243.27
2018-05-21T12:21:37.717Z,95249.91
2018-05-21T12:24:06.170Z,95247.67
2018-05-21T12:26:34.596Z,95256.28
2018-05-21T12:29:03.103Z,95254.05
2018-05-21T12:31:32.286Z,95253.16
2018-05-21T12:34:00.739Z,95250.48
2018-05-21T12:36:29.158Z,95255.55
2018-05-21T12:38:58.379Z,95250.55
2018-05-21T12:41:26.807Z,95252.13
2018-05-21T12:43:55.272Z,95257.63
2018-05-21T12:46:23.693Z,95263.77
2018-05-21T12:48:52.160Z,95261.92
2018-05-21T12:51:20.587Z,95261.69
2018-05-21T12:53:49.024Z,95268.55
2018-05-21T12:56:17.452Z,95268.23
2018-05-21T12:58:45.905Z,95273.41
2018-05-21T13:01:14.325Z,95266.67
2018-05-21T13:03:43.587Z,95263.41
2018-05-21T13:06:12.000Z,95261.50
2018-05-21T13:08:40.457Z,95257.77
2018-05-21T13:11:08.903Z,95254.76
2018-05-21T13:13:37.459Z,95250.49
2018-05-21T13:16:05.892Z,95253.03
2018-05-21T13:18:34.357Z,95258.03
2018-05-21T13:21:03.575Z,95255.75
2018-05-21T13:23:32.032Z,95264.82
2018-05-21T13:26:01.256Z,95260.84
2018-05-21T13:28:29.710Z,95257.38
2018-05-21T13:30:58.115Z,95253.74
2018-05-21T13:33:26.569Z,95252.24
2018-05-21T13:35:54.983Z,95255.56
2018-05-21T13:38:23.463Z,95251.00
2018-05-21T13:40:52.675Z,95248.58
2018-05-21T13:43:21.106Z,95244.98
2018-05-21T13:45:49.564Z,95246.02
2018-05-21T13:48:18.004Z,95238.57
2018-05-21T13:50:47.225Z,95231.79
2018-05-21T13:53:16.408Z,95228.99
2018-05-21T13:55:46.571Z,95224.80
2018-05-21T13:58:14.988Z,95224.49
2018-05-21T14:00:43.425Z,95225.09
2018-05-21T14:03:11.843Z,95220.02
2018-05-21T14:05:40.296Z,95216.33
2018-05-21T14:08:08.749Z,95214.05
2018-05-21T14:10:37.219Z,95210.96
2018-05-21T14:13:05.648Z,95209.26
2018-05-21T14:15:34.104Z,95204.02
2018-05-21T14:18:02.515Z,95209.11
2018-05-21T14:20:30.971Z,95205.14
2018-05-21T14:22:59.393Z,95199.28
2018-05-21T14:25:27.935Z,95199.68
2018-05-21T14:27:56.285Z,95201.02
2018-05-21T14:30:24.755Z,95202.45
2018-05-21T14:32:53.187Z,95205.48
2018-05-21T14:35:21.642Z,95197.49
2018-05-21T14:37:50.058Z,95201.04
2018-05-21T14:40:18.522Z,95197.72
2018-05-21T14:42:46.949Z,95201.64
2018-05-21T14:45:15.424Z,95200.98
2018-05-21T14:47:44.635Z,95198.62
2018-05-21T14:50:13.857Z,95194.78
2018-05-21T14:52:42.271Z,95187.57
2018-05-21T14:55:10.730Z,95185.67
2018-05-21T14:57:39.156Z,95185.23
2018-05-21T15:00:07.631Z,95181.56
2018-05-21T15:02:36.139Z,95182.31
2018-05-21T15:05:04.630Z,95185.78
2018-05-21T15:07:33.127Z,95179.05
2018-05-21T15:10:02.386Z,95187.42
2018-05-21T15:12:30.945Z,95184.02
2018-05-21T15:14:59.369Z,95187.50
2018-05-21T15:17:27.906Z,95179.00
2018-05-21T15:19:56.335Z,95188.77
2018-05-21T15:22:24.848Z,95182.70
2018-05-21T15:24:53.290Z,95182.02
2018-05-21T15:27:21.813Z,95178.53
2018-05-21T15:29:50.233Z,95174.61
2018-05-21T15:32:18.724Z,95165.69
2018-05-21T15:34:47.165Z,95173.72
2018-05-21T15:37:15.679Z,95166.01
2018-05-21T15:39:44.092Z,95161.33
2018-05-21T15:42:12.602Z,95153.95
2018-05-21T15:44:41.036Z,95155.95
2018-05-21T15:47:09.596Z,95152.17
2018-05-21T15:49:38.017Z,95146.19
2018-05-21T15:52:06.485Z,95143.63
2018-05-21T15:54:35.672Z,95137.88
2018-05-21T15:57:04.136Z,95140.06
2018-05-21T15:59:32.568Z,95135.00
2018-05-21T16:02:01.007Z,95130.78
2018-05-21T16:04:29.428Z,95131.42
2018-05-21T16:06:58.669Z,95126.50
2018-05-21T16:09:27.125Z,95122.72
2018-05-21T16:11:55.615Z,95126.05
2018-05-21T16:14:24.059Z,95123.66
2018-05-21T16:16:52.523Z,95126.85
2018-05-21T16:19:20.948Z,95124.94
2018-05-21T16:21:50.177Z,95118.81
2018-05-21T16:24:18.579Z,95109.72
2018-05-21T16:26:47.044Z,95123.13
2018-05-21T16:29:15.491Z,95108.83
2018-05-21T16:31:43.922Z,95116.02
2018-05-21T16:34:12.332Z,95113.92
2018-05-21T16:36:40.808Z,95109.61
2018-05-21T16:39:09.225Z,95116.84
2018-05-21T16:41:37.700Z,95111.03
2018-05-21T16:44:06.136Z,95113.98
2018-05-21T16:46:34.594Z,95111.73
2018-05-21T16:49:03.829Z,95120.17
2018-05-21T16:51:32.289Z,95115.63
2018-05-21T16:54:01.495Z,95128.55
2018-05-21T16:56:30.707Z,95128.66
2018-05-21T16:58:59.156Z,95125.25
2018-05-21T17:01:27.628Z,95128.30
2018-05-21T17:03:56.063Z,95125.98
2018-05-21T17:06:24.518Z,95127.67
2018-05-21T17:08:52.950Z,95133.24
2018-05-21T17:11:21.449Z,95131.06
2018-05-21T17:13:49.898Z,95126.30
2018-05-21T17:16:18.354Z,95130.55
2018-05-21T17:18:46.824Z,95132.45
2018-05-21T17:21:15.275Z,95130.47
2018-05-21T17:23:43.730Z,95123.44
2018-05-21T17:26:12.172Z,95124.95
2018-05-21T17:28:40.653Z,95122.16
2018-05-21T17:31:09.129Z,95120.72
2018-05-21T17:33:37.590Z,95121.92
2018-05-21T17:36:06.020Z,95114.45
2018-05-21T17:38:34.470Z,95117.50
2018-05-21T17:41:02.903Z,95117.74
2018-05-21T17:43:32.180Z,95118.50
2018-05-21T17:46:00.649Z,95120.33
2018-05-21T17:48:29.114Z,95119.44
2018-05-21T17:50:57.564Z,95124.78
2018-05-21T17:53:26.810Z,95123.58
2018-05-21T17:55:55.254Z,95131.30
2018-05-21T17:58:24.472Z,95135.75
2018-05-21T18:00:52.923Z,95125.08
2018-05-21T18:03:21.397Z,95123.61
2018-05-21T18:05:49.824Z,95128.06
2018-05-21T18:08:19.059Z,95128.48
2018-05-21T18:10:47.499Z,95123.90
2018-05-21T18:13:16.740Z,95123.27
2018-05-21T18:15:45.180Z,95127.02
2018-05-21T18:18:14.407Z,95124.94
2018-05-21T18:20:42.832Z,95125.80
2018-05-21T18:23:11.337Z,95122.64
2018-05-21T18:25:39.796Z,95118.59
2018-05-21T18:28:08.261Z,95123.53
2018-05-21T18:30:36.721Z,95135.20
2018-05-21T18:33:06.036Z,95135.84
2018-05-21T18:35:34.520Z,95134.70
2018-05-21T18:38:02.958Z,95142.25
2018-05-21T18:40:31.412Z,95130.17
2018-05-21T18:42:59.868Z,95134.87
2018-05-21T18:45:29.100Z,95138.07
2018-05-21T18:47:57.555Z,95134.05
2018-05-21T18:50:26.764Z,95140.36
2018-05-21T18:52:55.207Z,95129.57
2018-05-21T18:55:23.648Z,95131.64
2018-05-21T18:57:52.138Z,95134.54
2018-05-21T19:00:20.571Z,95133.00
2018-05-21T19:02:48.991Z,95139.36
2018-05-21T19:05:17.459Z,95136.45
2018-05-21T19:07:46.728Z,95134.98
2018-05-21T19:10:15.179Z,95134.34
2018-05-21T19:12:43.590Z,95144.45
2018-05-21T19:15:12.074Z,95142.06
2018-05-21T19:17:40.488Z,95138.08
2018-05-21T19:20:08.944Z,95134.95
2018-05-21T19:22:37.380Z,95140.53
2018-05-21T19:25:06.612Z,95140.44
2018-05-21T19:27:35.071Z,95137.34
2018-05-21T19:30:03.881Z,95149.97
2018-05-21T19:32:32.362Z,95149.59
2018-05-21T19:35:00.826Z,95184.28
2018-05-21T19:37:29.292Z,95198.53
2018-05-21T19:39:57.734Z,95201.05
2018-05-21T19:42:26.267Z,95206.69
2018-05-21T19:44:54.733Z,95196.88
2018-05-21T19:47:23.161Z,95200.41
2018-05-21T19:49:51.623Z,95213.75
2018-05-21T19:52:20.858Z,95217.95
2018-05-21T19:54:49.322Z,95222.28
2018-05-21T19:57:18.497Z,95231.20
2018-05-21T19:59:47.035Z,95230.91
2018-05-21T20:02:15.399Z,95224.72
2018-05-21T20:04:43.833Z,95239.98
2018-05-21T20:07:12.302Z,95245.02
2018-05-21T20:09:41.034Z,95242.80
2018-05-21T20:12:10.251Z,95248.96
2018-05-21T20:14:39.474Z,95245.80
2018-05-21T20:17:07.915Z,95242.23
2018-05-21T20:19:36.472Z,95248.20
2018-05-21T20:22:05.006Z,95249.96
2018-05-21T20:24:34.237Z,95243.88
2018-05-21T20:27:02.676Z,95245.52
2018-05-21T20:29:31.137Z,95249.98
2018-05-21T20:31:59.571Z,95244.00
2018-05-21T20:34:28.777Z,95241.58
2018-05-21T20:36:57.950Z,95234.36
2018-05-21T20:39:26.391Z,95224.42
2018-05-21T20:41:54.800Z,95219.88
2018-05-21T20:44:23.238Z,95226.23
2018-05-21T20:46:51.657Z,95215.50
2018-05-21T20:49:20.103Z,95215.22
2018-05-21T20:51:48.528Z,95210.50
2018-05-21T20:54:16.974Z,95203.01
2018-05-21T20:56:45.374Z,95192.14
2018-05-21T20:59:13.766Z,95183.80
2018-05-21T21:01:42.202Z,95172.80
2018-05-21T21:04:11.377Z,95176.79
2018-05-21T21:06:39.823Z,95171.46
2018-05-21T21:09:08.243Z,95165.68
2018-05-21T21:11:36.682Z,95165.69
2018-05-21T21:14:05.088Z,95176.84
2018-05-21T21:16:33.512Z,95168.66
2018-05-21T21:19:01.919Z,95175.78
2018-05-21T21:21:31.114Z,95185.41
2018-05-21T21:24:00.296Z,95183.38
2018-05-21T21:26:28.734Z,95186.88
2018-05-21T21:28:57.126Z,95184.44
2018-05-21T21:31:25.559Z,95180.70
2018-05-21T21:33:53.962Z,95175.09
2018-05-21T21:36:23.163Z,95163.28
2018-05-21T21:38:52.335Z,95158.97
2018-05-21T21:41:20.771Z,95149.03
2018-05-21T21:43:49.184Z,95153.63
2018-05-21T21:46:17.621Z,95150.02
2018-05-21T21:48:46.791Z,95146.15
2018-05-21T21:51:15.232Z,95142.12
2018-05-21T21:53:43.653Z,95136.59
2018-05-21T21:56:12.071Z,95129.19
2018-05-21T21:58:41.244Z,95124.75
2018-05-21T22:01:09.690Z,95117.67
2018-05-21T22:03:38.091Z,95118.73
2018-05-21T22:06:06.550Z,95110.44
2018-05-21T22:08:34.945Z,95106.84
2018-05-21T22:11:03.379Z,95105.09
2018-05-21T22:13:32.567Z,95103.34
2018-05-21T22:16:01.004Z,95105.37
2018-05-21T22:18:30.207Z,95094.74
2018-05-21T22:20:59.443Z,95097.02
2018-05-21T22:23:27.893Z,95088.44
2018-05-21T22:25:56.402Z,95091.36
2018-05-21T22:28:24.872Z,95090.55
2018-05-21T22:30:53.339Z,95084.50
2018-05-21T22:33:21.758Z,95090.38
2018-05-21T22:35:50.277Z,95080.84
2018-05-21T22:38:19.520Z,95080.42
2018-05-21T22:40:47.971Z,95077.05
2018-05-21T22:43:16.380Z,95081.05
2018-05-21T22:45:44.842Z,95082.80
2018-05-21T22:48:13.260Z,95081.32
2018-05-21T22:50:41.711Z,95073.81
2018-05-21T22:53:10.885Z,95071.38
2018-05-21T22:55:39.358Z,95071.50
2018-05-21T22:58:07.786Z,95070.18
2018-05-21T23:00:37.056Z,95069.50
2018-05-21T23:03:05.493Z,95068.27
2018-05-21T23:05:33.931Z,95064.87
2018-05-21T23:08:02.420Z,95064.02
2018-05-21T23:10:30.850Z,95071.25
2018-05-21T23:12:59.369Z,95056.27
2018-05-21T23:15:27.806Z,95061.73
2018-05-21T23:17:57.042Z,95068.00
2018-05-21T23:20:25.447Z,95063.44
2018-05-21T23:22:53.928Z,95065.58
2018-05-21T23:25:22.379Z,95055.41
2018-05-21T23:27:50.839Z,95062.66
2018-05-21T23:30:19.262Z,95057.84
2018-05-21T23:32:47.734Z,95056.49
2018-05-21T23:35:16.183Z,95056.34
2018-05-21T23:37:45.435Z,95054.05
2018-05-21T23:40:13.921Z,95057.80
2018-05-21T23:42:42.416Z,95056.19
2018-05-21T23:45:10.853Z,95052.67
2018-05-21T23:47:40.132Z,95053.73
2018-05-21T23:50:08.624Z,95056.02
2018-05-21T23:52:37.080Z,95051.69
2018-05-21T23:55:05.520Z,95052.23
2018-05-21T23:57:34.005Z,95056.02
